createdAt,value
2018-07-17T00:01:40.455Z,19.50
2018-07-17T00:04:09.519Z,19.50
2018-07-17T00:06:40.409Z,19.50
2018-07-17T00:09:10.059Z,19.40
2018-07-17T00:11:41.389Z,19.40
2018-07-17T00:14:10.537Z,19.40
2018-07-17T00:16:40.298Z,19.40
2018-07-17T00:21:54.344Z,19.50
2018-07-17T00:24:32.161Z,19.50
2018-07-17T00:27:05.614Z,19.40
2018-07-17T00:29:37.623Z,19.40
2018-07-17T00:32:07.814Z,19.40
2018-07-17T00:34:36.759Z,19.40
2018-07-17T00:37:07.406Z,19.40
2018-07-17T00:39:53.103Z,19.30
2018-07-17T00:42:26.825Z,19.40
2018-07-17T00:44:56.019Z,19.40
2018-07-17T00:47:26.506Z,19.40
2018-07-17T00:49:55.687Z,19.40
2018-07-17T00:52:26.918Z,19.40
2018-07-17T00:54:56.970Z,19.50
2018-07-17T00:57:26.727Z,19.50
2018-07-17T00:59:57.200Z,19.50
2018-07-17T01:02:32.420Z,19.50
2018-07-17T01:05:07.378Z,19.50
2018-07-17T01:07:43.215Z,19.50
2018-07-17T01:10:17.406Z,19.60
2018-07-17T01:12:47.703Z,19.60
2018-07-17T01:15:21.088Z,19.60
2018-07-17T01:17:50.163Z,19.60
2018-07-17T01:20:19.271Z,19.60
2018-07-17T01:22:49.608Z,19.60
2018-07-17T01:25:18.890Z,19.60
2018-07-17T01:27:48.283Z,19.60
2018-07-17T01:30:18.421Z,19.60
2018-07-17T01:32:47.467Z,19.60
2018-07-17T01:35:16.532Z,19.60
2018-07-17T01:37:45.454Z,19.50
2018-07-17T01:40:14.427Z,19.50
2018-07-17T01:42:48.193Z,19.50
2018-07-17T01:45:17.313Z,19.50
2018-07-17T01:47:46.753Z,19.50
2018-07-17T01:50:17.169Z,19.50
2018-07-17T01:52:46.292Z,19.50
2018-07-17T01:55:17.301Z,19.40
2018-07-17T01:57:47.407Z,19.40
2018-07-17T02:00:19.571Z,19.40
2018-07-17T02:02:50.317Z,19.30
2018-07-17T02:05:29.114Z,19.30
2018-07-17T02:08:02.608Z,19.20
2018-07-17T02:10:32.062Z,19.20
2018-07-17T02:13:08.573Z,19.20
2018-07-17T02:15:39.185Z,19.20
2018-07-17T02:18:08.325Z,19.10
2018-07-17T02:20:44.200Z,19.20
2018-07-17T02:23:15.721Z,19.20
2018-07-17T02:25:45.639Z,19.10
2018-07-17T02:28:17.394Z,19.20
2018-07-17T02:30:50.140Z,19.20
2018-07-17T02:33:20.829Z,19.20
2018-07-17T02:35:50.898Z,19.20
2018-07-17T02:38:23.210Z,19.20
2018-07-17T02:40:55.722Z,19.20
2018-07-17T02:43:25.581Z,19.20
2018-07-17T02:45:55.134Z,19.10
2018-07-17T02:48:25.108Z,19.10
2018-07-17T02:50:55.923Z,19.10
2018-07-17T02:53:26.664Z,19.20
2018-07-17T02:55:56.545Z,19.20
2018-07-17T02:58:26.754Z,19.20
2018-07-17T03:00:55.799Z,19.20
2018-07-17T03:03:24.769Z,19.10
2018-07-17T03:05:53.982Z,19.10
2018-07-17T03:08:22.959Z,19.10
2018-07-17T03:10:53.312Z,19.00
2018-07-17T03:13:22.327Z,18.90
2018-07-17T03:15:52.487Z,18.90
2018-07-17T03:18:22.253Z,18.80
2018-07-17T03:20:54.946Z,18.80
2018-07-17T03:23:26.261Z,18.80
2018-07-17T03:25:59.019Z,18.80
2018-07-17T03:28:29.270Z,18.80
2018-07-17T03:31:00.089Z,18.80
2018-07-17T03:36:26.364Z,18.80
2018-07-17T03:38:59.139Z,18.80
2018-07-17T03:41:29.140Z,18.80
2018-07-17T03:43:59.685Z,18.90
2018-07-17T03:46:30.156Z,18.80
2018-07-17T03:49:01.793Z,18.90
2018-07-17T03:51:31.014Z,18.90
2018-07-17T03:54:03.111Z,18.90
2018-07-17T03:56:33.037Z,18.90
2018-07-17T04:01:41.245Z,19.00
2018-07-17T04:04:13.200Z,18.90
2018-07-17T04:06:42.167Z,19.00
2018-07-17T04:09:11.140Z,19.00
2018-07-17T04:11:40.104Z,19.10
2018-07-17T04:14:09.145Z,19.10
2018-07-17T04:16:43.488Z,19.20
2018-07-17T04:19:13.427Z,19.20
2018-07-17T04:22:15.719Z,19.20
2018-07-17T04:25:20.858Z,19.30
2018-07-17T04:27:50.782Z,19.30
2018-07-17T04:30:20.820Z,19.40
2018-07-17T04:32:50.840Z,19.40
2018-07-17T04:35:19.834Z,19.50
2018-07-17T04:37:48.912Z,19.50
2018-07-17T04:40:19.403Z,19.50
2018-07-17T04:42:52.257Z,19.60
2018-07-17T04:45:25.893Z,19.60
2018-07-17T04:47:55.577Z,19.70
2018-07-17T04:50:25.530Z,19.70
2018-07-17T04:53:01.993Z,19.70
2018-07-17T04:55:31.526Z,19.80
2018-07-17T04:58:06.939Z,19.90
2018-07-17T05:00:37.046Z,20.00
2018-07-17T05:03:08.684Z,20.10
2018-07-17T05:05:37.669Z,20.10
2018-07-17T05:08:07.172Z,20.20
2018-07-17T05:10:36.466Z,20.30
2018-07-17T05:13:07.182Z,20.40
2018-07-17T05:15:37.373Z,20.50
2018-07-17T05:18:21.487Z,20.60
2018-07-17T05:20:51.303Z,20.70
2018-07-17T05:31:48.133Z,21.30
2018-07-17T05:34:18.766Z,21.50
2018-07-17T05:36:47.795Z,21.60
2018-07-17T05:39:17.568Z,21.80
2018-07-17T05:41:46.536Z,21.90
2018-07-17T05:44:15.502Z,22.00
2018-07-17T05:46:46.274Z,22.20
2018-07-17T05:49:15.298Z,22.30
2018-07-17T05:51:44.240Z,22.50
2018-07-17T05:54:13.252Z,22.60
2018-07-17T05:56:42.256Z,22.70
2018-07-17T06:00:32.923Z,22.80
2018-07-17T06:03:06.116Z,22.90
2018-07-17T06:06:01.971Z,23.10
2018-07-17T06:08:43.884Z,23.20
2018-07-17T06:11:19.371Z,23.30
2018-07-17T06:13:56.540Z,23.50
2018-07-17T06:16:33.262Z,23.60
2018-07-17T06:19:19.062Z,23.70
2018-07-17T06:24:47.729Z,23.90
2018-07-17T06:27:42.557Z,24.00
2018-07-17T06:33:30.376Z,24.20
2018-07-17T06:36:15.850Z,24.30
2018-07-17T06:39:16.733Z,24.40
2018-07-17T06:42:10.211Z,24.50
2018-07-17T06:45:01.300Z,24.60
2018-07-17T06:53:10.836Z,24.90
2018-07-17T06:56:01.678Z,25.00
2018-07-17T06:58:36.785Z,25.10
2018-07-17T07:01:16.296Z,25.30
2018-07-17T07:03:56.094Z,25.40
2018-07-17T07:06:34.441Z,25.50
2018-07-17T07:09:30.667Z,25.60
2018-07-17T07:12:12.890Z,25.70
2018-07-17T07:14:59.568Z,25.70
2018-07-17T07:22:11.657Z,25.90
2018-07-17T07:24:59.238Z,26.10
2018-07-17T07:42:17.565Z,26.20
2018-07-17T07:45:15.762Z,26.10
2018-07-17T07:47:58.300Z,26.00
2018-07-17T07:51:26.897Z,26.00
2018-07-17T07:57:26.513Z,26.10
2018-07-17T08:06:26.337Z,26.10
2018-07-17T08:09:26.325Z,26.10
2018-07-17T08:12:07.161Z,26.10
2018-07-17T08:14:40.302Z,26.10
2018-07-17T08:18:10.449Z,26.00
2018-07-17T08:21:02.846Z,25.90
2018-07-17T08:29:35.037Z,25.80
2018-07-17T08:33:50.054Z,25.80
2018-07-17T08:36:40.542Z,25.80
2018-07-17T08:50:41.583Z,26.10
2018-07-17T08:53:35.934Z,26.10
2018-07-17T08:56:08.761Z,26.10
2018-07-17T09:01:41.476Z,26.10
2018-07-17T09:04:23.014Z,26.00
2018-07-17T09:06:56.839Z,25.90
2018-07-17T09:15:14.440Z,25.60
2018-07-17T09:42:59.754Z,24.30
2018-07-17T09:45:42.269Z,22.90
2018-07-17T09:48:12.096Z,22.70
2018-07-17T09:50:48.110Z,22.50
2018-07-17T09:53:19.482Z,22.50
2018-07-17T09:56:28.122Z,22.40
2018-07-17T09:59:26.864Z,22.40
2018-07-17T10:02:08.424Z,22.50
2018-07-17T10:04:45.081Z,22.50
2018-07-17T10:07:22.840Z,22.50
2018-07-17T10:10:25.534Z,22.50
2018-07-17T10:13:10.652Z,22.50
2018-07-17T10:18:44.070Z,22.60
2018-07-17T10:22:08.840Z,22.60
2018-07-17T10:25:04.284Z,22.60
2018-07-17T10:31:32.336Z,22.40
2018-07-17T11:03:45.774Z,22.10
2018-07-17T11:16:56.009Z,21.60
2018-07-17T11:19:24.927Z,21.70
2018-07-17T11:21:53.730Z,21.80
2018-07-17T11:24:22.523Z,21.80
2018-07-17T11:26:51.341Z,21.90
2018-07-17T11:29:20.247Z,22.10
2018-07-17T11:31:49.076Z,22.40
2018-07-17T11:34:17.962Z,22.70
2018-07-17T11:36:47.130Z,23.20
2018-07-17T11:39:16.120Z,23.60
2018-07-17T11:41:44.875Z,24.00
2018-07-17T11:44:13.626Z,24.40
2018-07-17T11:46:42.571Z,24.60
2018-07-17T11:49:11.360Z,24.70
2018-07-17T11:51:40.102Z,24.70
2018-07-17T11:54:09.057Z,24.70
2018-07-17T11:56:38.097Z,24.70
2018-07-17T11:59:07.120Z,24.70
2018-07-17T12:01:36.031Z,24.70
2018-07-17T12:04:04.886Z,24.80
2018-07-17T12:06:34.406Z,24.80
2018-07-17T12:09:03.643Z,25.00
2018-07-17T12:11:32.650Z,25.10
2018-07-17T12:14:01.493Z,25.10
2018-07-17T12:16:30.431Z,25.20
2018-07-17T12:18:59.226Z,25.10
2018-07-17T12:21:28.173Z,25.10
2018-07-17T12:23:59.588Z,25.10
2018-07-17T12:26:28.402Z,25.20
2018-07-17T12:28:57.206Z,25.30
2018-07-17T12:31:26.278Z,25.40
2018-07-17T12:33:55.093Z,25.40
2018-07-17T12:36:23.927Z,25.50
2018-07-17T12:38:52.834Z,25.60
2018-07-17T12:41:22.568Z,25.80
2018-07-17T12:43:52.049Z,26.00
2018-07-17T12:46:20.978Z,26.20
2018-07-17T12:48:50.034Z,26.60
2018-07-17T12:51:19.703Z,26.80
2018-07-17T12:53:48.578Z,27.00
2018-07-17T12:56:17.505Z,27.20
2018-07-17T12:58:46.346Z,27.30
2018-07-17T13:01:15.095Z,27.30
2018-07-17T13:03:43.899Z,27.20
2018-07-17T13:06:12.888Z,27.20
2018-07-17T13:08:41.710Z,27.20
2018-07-17T13:11:11.293Z,27.20
2018-07-17T13:13:40.074Z,27.20
2018-07-17T13:16:08.960Z,27.20
2018-07-17T13:18:42.152Z,27.10
2018-07-17T13:21:11.038Z,27.10
2018-07-17T13:23:39.861Z,27.00
2018-07-17T13:26:08.576Z,26.90
2018-07-17T13:28:37.266Z,26.80
2018-07-17T13:31:06.053Z,26.80
2018-07-17T13:33:35.111Z,26.80
2018-07-17T13:36:03.861Z,26.80
2018-07-17T13:38:32.575Z,26.90
2018-07-17T13:41:01.243Z,26.90
2018-07-17T13:43:30.221Z,26.90
2018-07-17T13:45:59.004Z,26.90
2018-07-17T13:48:27.741Z,26.90
2018-07-17T13:53:24.847Z,27.20
2018-07-17T13:55:53.585Z,27.30
2018-07-17T13:58:22.709Z,27.50
2018-07-17T14:00:51.713Z,27.70
2018-07-17T14:03:20.433Z,27.80
2018-07-17T14:05:49.299Z,27.80
2018-07-17T14:08:18.138Z,27.90
2018-07-17T14:10:47.053Z,27.90
2018-07-17T14:13:15.747Z,28.00
2018-07-17T14:15:44.539Z,28.10
2018-07-17T14:18:13.533Z,28.30
2018-07-17T14:20:42.470Z,28.40
2018-07-17T14:23:11.433Z,28.30
2018-07-17T14:25:40.312Z,28.20
2018-07-17T14:28:09.078Z,28.10
2018-07-17T14:30:37.932Z,27.90
2018-07-17T14:33:06.964Z,27.70
2018-07-17T14:35:35.777Z,27.60
2018-07-17T14:38:04.619Z,27.60
2018-07-17T14:40:33.436Z,27.60
2018-07-17T14:43:02.299Z,27.60
2018-07-17T14:45:31.280Z,27.50
2018-07-17T14:48:00.187Z,27.30
2018-07-17T14:50:29.129Z,27.20
2018-07-17T14:52:58.167Z,27.20
2018-07-17T14:57:55.661Z,27.30
2018-07-17T15:00:25.449Z,27.40
2018-07-17T15:05:22.895Z,27.60
2018-07-17T15:07:53.133Z,27.70
2018-07-17T15:10:22.050Z,27.80
2018-07-17T15:12:52.248Z,27.80
2018-07-17T15:15:21.391Z,27.90
2018-07-17T15:17:50.284Z,27.90
2018-07-17T15:20:20.443Z,27.90
2018-07-17T15:22:52.174Z,28.00
2018-07-17T15:25:20.735Z,28.00
2018-07-17T15:27:49.754Z,27.90
2018-07-17T15:30:18.282Z,28.00
2018-07-17T15:32:46.766Z,28.10
2018-07-17T15:35:15.293Z,28.20
2018-07-17T15:37:43.709Z,28.20
2018-07-17T15:40:12.247Z,28.30
2018-07-17T15:45:12.763Z,28.20
2018-07-17T15:47:41.266Z,28.30
2018-07-17T15:50:10.316Z,28.30
2018-07-17T15:52:38.802Z,28.40
2018-07-17T16:00:04.303Z,28.40
2018-07-17T16:02:32.753Z,28.40
2018-07-17T16:05:01.300Z,28.40
2018-07-17T16:07:30.219Z,28.50
2018-07-17T16:09:58.809Z,28.60
2018-07-17T16:12:27.668Z,28.60
2018-07-17T16:14:56.178Z,28.60
2018-07-17T16:17:24.668Z,28.60
2018-07-17T16:19:53.203Z,28.50
2018-07-17T16:22:21.730Z,28.40
2018-07-17T16:27:19.144Z,28.50
2018-07-17T16:29:47.657Z,28.50
2018-07-17T16:32:16.715Z,28.50
2018-07-17T16:34:45.378Z,28.60
2018-07-17T16:37:13.898Z,28.60
2018-07-17T16:39:42.510Z,28.60
2018-07-17T16:42:11.104Z,28.60
2018-07-17T16:44:39.523Z,28.50
2018-07-17T16:47:08.202Z,28.50
2018-07-17T16:49:36.714Z,28.40
2018-07-17T16:52:05.474Z,28.20
2018-07-17T16:54:34.078Z,28.00
2018-07-17T16:57:02.603Z,27.70
2018-07-17T16:59:31.086Z,27.60
2018-07-17T17:01:59.514Z,27.60
2018-07-17T17:04:28.173Z,27.40
2018-07-17T17:06:56.621Z,27.30
2018-07-17T17:09:25.063Z,27.20
2018-07-17T17:11:53.663Z,27.00
2018-07-17T17:14:22.458Z,26.80
2018-07-17T17:16:51.729Z,26.60
2018-07-17T17:19:20.531Z,26.50
2018-07-17T17:21:49.242Z,26.30
2018-07-17T17:24:17.840Z,26.10
2018-07-17T17:26:46.377Z,26.00
2018-07-17T17:29:14.889Z,25.90
2018-07-17T17:31:43.316Z,25.80
2018-07-17T17:34:11.790Z,25.70
2018-07-17T17:36:40.328Z,25.60
2018-07-17T17:39:10.031Z,25.50
2018-07-17T17:41:38.633Z,25.40
2018-07-17T17:44:08.034Z,25.30
2018-07-17T17:46:36.823Z,25.20
2018-07-17T17:49:05.483Z,25.20
2018-07-17T17:51:34.078Z,25.10
2018-07-17T17:54:02.557Z,25.00
2018-07-17T17:56:31.042Z,24.90
2018-07-17T17:58:59.774Z,24.90
2018-07-17T18:01:28.534Z,24.80
2018-07-17T18:03:57.288Z,24.80
2018-07-17T18:06:26.027Z,24.70
2018-07-17T18:08:54.688Z,24.70
2018-07-17T18:11:23.218Z,24.70
2018-07-17T18:13:51.641Z,24.60
2018-07-17T18:16:20.131Z,24.50
2018-07-17T18:18:48.850Z,24.50
2018-07-17T18:21:17.361Z,24.50
2018-07-17T18:23:45.813Z,24.40
2018-07-17T18:26:14.290Z,24.40
2018-07-17T18:28:42.783Z,24.30
2018-07-17T18:31:11.234Z,24.20
2018-07-17T18:33:39.736Z,24.20
2018-07-17T18:36:08.246Z,24.10
2018-07-17T18:38:36.716Z,24.10
2018-07-17T18:41:05.242Z,24.00
2018-07-17T18:43:33.726Z,24.00
2018-07-17T18:46:02.199Z,23.90
2018-07-17T18:48:30.834Z,23.80
2018-07-17T18:50:59.326Z,23.80
2018-07-17T18:53:27.826Z,23.70
2018-07-17T18:55:56.680Z,23.60
2018-07-17T18:58:25.154Z,23.60
2018-07-17T19:00:53.630Z,23.50
2018-07-17T19:03:22.194Z,23.40
2018-07-17T19:05:50.792Z,23.40
2018-07-17T19:08:19.373Z,23.30
2018-07-17T19:10:48.053Z,23.20
2018-07-17T19:13:16.510Z,23.20
2018-07-17T19:15:44.965Z,23.10
2018-07-17T19:18:13.512Z,23.10
2018-07-17T19:20:41.966Z,23.00
2018-07-17T19:23:10.447Z,22.90
2018-07-17T19:25:38.962Z,22.90
2018-07-17T19:28:07.478Z,22.80
2018-07-17T19:33:04.180Z,22.70
2018-07-17T19:35:32.668Z,22.60
2018-07-17T19:38:01.439Z,22.50
2018-07-17T19:40:30.046Z,22.50
2018-07-17T19:42:58.581Z,22.40
2018-07-17T19:45:27.301Z,22.30
2018-07-17T19:47:55.965Z,22.20
2018-07-17T19:50:24.436Z,22.20
2018-07-17T19:52:53.263Z,22.10
2018-07-17T19:55:21.958Z,22.00
2018-07-17T19:57:50.572Z,22.00
2018-07-17T20:00:19.119Z,21.90
2018-07-17T20:02:47.778Z,21.90
2018-07-17T20:05:16.284Z,21.80
2018-07-17T20:07:44.760Z,21.80
2018-07-17T20:10:13.331Z,21.80
2018-07-17T20:12:41.918Z,21.70
2018-07-17T20:15:10.367Z,21.60
2018-07-17T20:17:38.930Z,21.60
2018-07-17T20:20:08.633Z,21.60
2018-07-17T20:22:37.422Z,21.60
2018-07-17T20:25:05.942Z,21.50
2018-07-17T20:27:34.445Z,21.50
2018-07-17T20:30:02.939Z,21.40
2018-07-17T20:34:59.614Z,21.40
2018-07-17T20:37:28.149Z,21.40
2018-07-17T20:39:56.696Z,21.40
2018-07-17T20:42:25.162Z,21.40
2018-07-17T20:44:53.949Z,21.40
2018-07-17T20:47:22.464Z,21.40
2018-07-17T20:49:50.970Z,21.40
2018-07-17T20:52:19.499Z,21.40
2018-07-17T20:54:47.990Z,21.40
2018-07-17T20:57:16.474Z,21.40
2018-07-17T20:59:44.910Z,21.40
2018-07-17T21:02:13.394Z,21.30
2018-07-17T21:04:41.990Z,21.30
2018-07-17T21:07:10.457Z,21.20
2018-07-17T21:09:38.947Z,21.20
2018-07-17T21:12:07.434Z,21.10
2018-07-17T21:14:35.907Z,21.10
2018-07-17T21:17:04.419Z,21.10
2018-07-17T21:19:32.847Z,21.00
2018-07-17T21:22:01.456Z,21.00
2018-07-17T21:24:30.007Z,20.90
2018-07-17T21:26:58.481Z,20.90
2018-07-17T21:29:27.037Z,20.90
2018-07-17T21:31:55.533Z,20.90
2018-07-17T21:34:23.969Z,20.80
2018-07-17T21:36:52.420Z,20.80
2018-07-17T21:39:21.223Z,20.80
2018-07-17T21:41:49.662Z,20.80
2018-07-17T21:46:46.252Z,20.70
2018-07-17T21:49:14.793Z,20.70
2018-07-17T21:51:43.238Z,20.60
2018-07-17T21:54:11.732Z,20.60
2018-07-17T21:56:40.165Z,20.50
2018-07-17T21:59:08.590Z,20.40
2018-07-17T22:01:37.314Z,20.40
2018-07-17T22:04:06.014Z,20.40
2018-07-17T22:06:34.561Z,20.30
2018-07-17T22:09:03.126Z,20.20
2018-07-17T22:11:31.590Z,20.20
2018-07-17T22:14:00.081Z,20.20
2018-07-17T22:16:28.628Z,20.20
2018-07-17T22:18:57.102Z,20.10
2018-07-17T22:21:25.588Z,20.10
2018-07-17T22:23:54.130Z,20.10
2018-07-17T22:26:22.582Z,20.10
2018-07-17T22:28:51.043Z,20.10
2018-07-17T22:31:19.538Z,20.10
2018-07-17T22:33:48.206Z,20.00
2018-07-17T22:36:16.926Z,20.00
2018-07-17T22:38:45.438Z,20.00
2018-07-17T22:41:14.148Z,19.90
2018-07-17T22:43:42.601Z,19.90
2018-07-17T22:46:11.108Z,19.90
2018-07-17T22:48:39.566Z,19.90
2018-07-17T22:51:08.028Z,19.90
2018-07-17T22:53:36.662Z,19.90
2018-07-17T22:56:05.254Z,19.90
2018-07-17T22:58:33.701Z,19.80
2018-07-17T23:01:02.410Z,19.80
2018-07-17T23:03:31.603Z,19.80
2018-07-17T23:06:00.010Z,19.80
2018-07-17T23:08:28.528Z,19.80
2018-07-17T23:10:56.970Z,19.80
2018-07-17T23:13:25.450Z,19.80
2018-07-17T23:15:53.966Z,19.70
2018-07-17T23:20:50.662Z,19.70
2018-07-17T23:23:19.146Z,19.70
2018-07-17T23:25:47.606Z,19.70
2018-07-17T23:28:16.047Z,19.70
2018-07-17T23:30:44.650Z,19.70
2018-07-17T23:33:13.218Z,19.70
2018-07-17T23:35:41.670Z,19.70
2018-07-17T23:38:10.137Z,19.70
2018-07-17T23:40:38.591Z,19.70
2018-07-17T23:43:07.170Z,19.70
2018-07-17T23:45:35.710Z,19.70
2018-07-17T23:48:04.225Z,19.70
2018-07-17T23:50:32.702Z,19.70
2018-07-17T23:53:01.213Z,19.60
2018-07-17T23:57:57.765Z,19.60
